Terminal Aerodrome Forecast
Issued by NWS Central Illinois

Home | Current Version | Previous Version | Text Only | Print | Product List | Glossary On
Versions: 1 2 3 4 5 6 7 8 9 10 11 12 13 14 15 16 17 18 19 20
307
FTUS43 KILX 211120
TAFPIA
TAF
KPIA 211120Z 2112/2212 VRB03KT P6SM VCSH SCT050 BKN250
     FM211500 20006KT P6SM SCT050 BKN250
     FM211800 19006KT P6SM VCTS SCT040CB BKN200
     FM220000 16006KT P6SM SCT250=

USA.gov is the U.S. government's official web portal to all federal, state and local government web resources and services.